sensor_id;sensor_type;location;lat;lon;timestamp;P1;durP1;ratioP1;P2;durP2;ratioP2
59974;SDS011;62136;-35.664;-63.766;2024-03-07T00:00:06;3.80;;;1.30;;
59974;SDS011;62136;-35.664;-63.766;2024-03-07T00:02:44;3.58;;;1.40;;
59974;SDS011;62136;-35.664;-63.766;2024-03-07T00:05:14;3.72;;;1.40;;
59974;SDS011;62136;-35.664;-63.766;2024-03-07T00:07:41;3.47;;;1.65;;
59974;SDS011;62136;-35.664;-63.766;2024-03-07T00:10:09;3.55;;;1.33;;
59974;SDS011;62136;-35.664;-63.766;2024-03-07T00:12:37;2.67;;;1.27;;
59974;SDS011;62136;-35.664;-63.766;2024-03-07T00:15:09;4.07;;;1.50;;
59974;SDS011;62136;-35.664;-63.766;2024-03-07T00:17:38;2.40;;;1.38;;
59974;SDS011;62136;-35.664;-63.766;2024-03-07T00:20:06;4.38;;;1.33;;
59974;SDS011;62136;-35.664;-63.766;2024-03-07T00:22:36;4.28;;;1.40;;
59974;SDS011;62136;-35.664;-63.766;2024-03-07T00:25:04;5.30;;;1.45;;
59974;SDS011;62136;-35.664;-63.766;2024-03-07T00:27:32;4.18;;;1.40;;
59974;SDS011;62136;-35.664;-63.766;2024-03-07T00:29:59;6.75;;;1.48;;
59974;SDS011;62136;-35.664;-63.766;2024-03-07T00:32:26;2.72;;;1.25;;
59974;SDS011;62136;-35.664;-63.766;2024-03-07T00:34:55;3.22;;;1.50;;
59974;SDS011;62136;-35.664;-63.766;2024-03-07T00:37:25;2.97;;;1.60;;
59974;SDS011;62136;-35.664;-63.766;2024-03-07T00:39:52;2.95;;;1.15;;
59974;SDS011;62136;-35.664;-63.766;2024-03-07T00:42:19;3.55;;;1.63;;
59974;SDS011;62136;-35.664;-63.766;2024-03-07T00:44:47;5.28;;;1.60;;
59974;SDS011;62136;-35.664;-63.766;2024-03-07T00:47:17;4.00;;;1.40;;
59974;SDS011;62136;-35.664;-63.766;2024-03-07T00:49:44;4.75;;;1.70;;
59974;SDS011;62136;-35.664;-63.766;2024-03-07T00:52:14;2.80;;;1.40;;
59974;SDS011;62136;-35.664;-63.766;2024-03-07T00:54:42;3.90;;;1.45;;
59974;SDS011;62136;-35.664;-63.766;2024-03-07T00:57:09;4.60;;;1.58;;
59974;SDS011;62136;-35.664;-63.766;2024-03-07T00:59:36;4.13;;;1.45;;
59974;SDS011;62136;-35.664;-63.766;2024-03-07T01:02:03;3.08;;;1.40;;
59974;SDS011;62136;-35.664;-63.766;2024-03-07T01:04:30;4.00;;;1.20;;
59974;SDS011;62136;-35.664;-63.766;2024-03-07T01:06:59;2.67;;;1.33;;
59974;SDS011;62136;-35.664;-63.766;2024-03-07T01:09:26;5.07;;;1.25;;
59974;SDS011;62136;-35.664;-63.766;2024-03-07T01:11:56;3.55;;;1.55;;
59974;SDS011;62136;-35.664;-63.766;2024-03-07T01:14:28;2.47;;;1.27;;
59974;SDS011;62136;-35.664;-63.766;2024-03-07T01:16:59;2.00;;;1.42;;
59974;SDS011;62136;-35.664;-63.766;2024-03-07T01:19:34;2.53;;;1.30;;
59974;SDS011;62136;-35.664;-63.766;2024-03-07T01:22:05;3.80;;;1.50;;
59974;SDS011;62136;-35.664;-63.766;2024-03-07T01:24:34;4.47;;;1.40;;
59974;SDS011;62136;-35.664;-63.766;2024-03-07T01:27:01;2.30;;;1.08;;
59974;SDS011;62136;-35.664;-63.766;2024-03-07T01:29:28;3.92;;;1.55;;
59974;SDS011;62136;-35.664;-63.766;2024-03-07T01:31:55;3.10;;;1.35;;
59974;SDS011;62136;-35.664;-63.766;2024-03-07T01:34:23;7.15;;;1.48;;
59974;SDS011;62136;-35.664;-63.766;2024-03-07T01:36:50;5.05;;;1.55;;
59974;SDS011;62136;-35.664;-63.766;2024-03-07T01:39:17;3.97;;;1.33;;
59974;SDS011;62136;-35.664;-63.766;2024-03-07T01:41:45;4.30;;;1.40;;
59974;SDS011;62136;-35.664;-63.766;2024-03-07T01:44:11;4.13;;;1.52;;
59974;SDS011;62136;-35.664;-63.766;2024-03-07T01:46:38;2.25;;;1.50;;
59974;SDS011;62136;-35.664;-63.766;2024-03-07T01:49:07;2.70;;;1.30;;
59974;SDS011;62136;-35.664;-63.766;2024-03-07T01:51:36;2.72;;;1.38;;
59974;SDS011;62136;-35.664;-63.766;2024-03-07T01:54:03;2.25;;;1.15;;
59974;SDS011;62136;-35.664;-63.766;2024-03-07T01:56:35;3.22;;;1.20;;
59974;SDS011;62136;-35.664;-63.766;2024-03-07T01:59:03;4.18;;;1.60;;
59974;SDS011;62136;-35.664;-63.766;2024-03-07T02:01:31;3.10;;;1.30;;
59974;SDS011;62136;-35.664;-63.766;2024-03-07T02:03:58;3.10;;;1.30;;
59974;SDS011;62136;-35.664;-63.766;2024-03-07T02:06:25;4.25;;;1.38;;
59974;SDS011;62136;-35.664;-63.766;2024-03-07T02:08:52;2.35;;;1.60;;
59974;SDS011;62136;-35.664;-63.766;2024-03-07T02:11:19;5.55;;;1.55;;
59974;SDS011;62136;-35.664;-63.766;2024-03-07T02:13:46;4.32;;;1.40;;
59974;SDS011;62136;-35.664;-63.766;2024-03-07T02:16:13;5.38;;;1.70;;
59974;SDS011;62136;-35.664;-63.766;2024-03-07T02:18:40;1.77;;;1.23;;
59974;SDS011;62136;-35.664;-63.766;2024-03-07T02:21:08;3.25;;;1.10;;
59974;SDS011;62136;-35.664;-63.766;2024-03-07T02:23:37;3.20;;;1.10;;
59974;SDS011;62136;-35.664;-63.766;2024-03-07T02:26:04;2.28;;;1.30;;
59974;SDS011;62136;-35.664;-63.766;2024-03-07T02:28:32;4.00;;;1.13;;
59974;SDS011;62136;-35.664;-63.766;2024-03-07T02:30:59;2.85;;;1.30;;
59974;SDS011;62136;-35.664;-63.766;2024-03-07T02:33:26;2.83;;;1.25;;
59974;SDS011;62136;-35.664;-63.766;2024-03-07T02:35:53;2.67;;;1.55;;
59974;SDS011;62136;-35.664;-63.766;2024-03-07T02:38:20;2.35;;;1.42;;
59974;SDS011;62136;-35.664;-63.766;2024-03-07T02:40:47;2.22;;;1.35;;
59974;SDS011;62136;-35.664;-63.766;2024-03-07T02:43:14;3.33;;;1.33;;
59974;SDS011;62136;-35.664;-63.766;2024-03-07T02:45:41;2.38;;;1.30;;
59974;SDS011;62136;-35.664;-63.766;2024-03-07T02:48:08;3.90;;;1.17;;
59974;SDS011;62136;-35.664;-63.766;2024-03-07T02:50:38;3.08;;;1.15;;
59974;SDS011;62136;-35.664;-63.766;2024-03-07T02:53:05;2.65;;;1.40;;
59974;SDS011;62136;-35.664;-63.766;2024-03-07T02:55:32;2.95;;;1.27;;
59974;SDS011;62136;-35.664;-63.766;2024-03-07T02:57:59;4.15;;;1.48;;
59974;SDS011;62136;-35.664;-63.766;2024-03-07T03:00:27;3.10;;;1.33;;
59974;SDS011;62136;-35.664;-63.766;2024-03-07T03:02:55;2.53;;;1.40;;
59974;SDS011;62136;-35.664;-63.766;2024-03-07T03:05:22;2.92;;;1.10;;
59974;SDS011;62136;-35.664;-63.766;2024-03-07T03:07:50;4.18;;;1.20;;
59974;SDS011;62136;-35.664;-63.766;2024-03-07T03:10:23;5.03;;;1.40;;
59974;SDS011;62136;-35.664;-63.766;2024-03-07T03:12:54;3.50;;;1.30;;
59974;SDS011;62136;-35.664;-63.766;2024-03-07T03:15:24;5.25;;;1.40;;
59974;SDS011;62136;-35.664;-63.766;2024-03-07T03:17:51;4.00;;;1.33;;
59974;SDS011;62136;-35.664;-63.766;2024-03-07T03:20:18;4.03;;;1.63;;
59974;SDS011;62136;-35.664;-63.766;2024-03-07T03:22:52;3.75;;;1.60;;
59974;SDS011;62136;-35.664;-63.766;2024-03-07T03:25:22;5.22;;;1.50;;
59974;SDS011;62136;-35.664;-63.766;2024-03-07T03:27:49;2.88;;;1.20;;
59974;SDS011;62136;-35.664;-63.766;2024-03-07T03:30:16;3.22;;;1.75;;
59974;SDS011;62136;-35.664;-63.766;2024-03-07T03:32:47;2.95;;;1.40;;
59974;SDS011;62136;-35.664;-63.766;2024-03-07T03:35:15;4.05;;;1.20;;
59974;SDS011;62136;-35.664;-63.766;2024-03-07T03:37:42;4.63;;;1.60;;
59974;SDS011;62136;-35.664;-63.766;2024-03-07T03:40:09;2.60;;;1.33;;
59974;SDS011;62136;-35.664;-63.766;2024-03-07T03:42:40;2.78;;;1.15;;
59974;SDS011;62136;-35.664;-63.766;2024-03-07T03:45:09;2.33;;;1.17;;
59974;SDS011;62136;-35.664;-63.766;2024-03-07T03:47:41;3.88;;;1.50;;
59974;SDS011;62136;-35.664;-63.766;2024-03-07T03:50:09;2.20;;;1.15;;
59974;SDS011;62136;-35.664;-63.766;2024-03-07T03:52:39;2.38;;;1.20;;
59974;SDS011;62136;-35.664;-63.766;2024-03-07T03:55:06;2.05;;;0.90;;
59974;SDS011;62136;-35.664;-63.766;2024-03-07T03:57:41;3.53;;;1.60;;
59974;SDS011;62136;-35.664;-63.766;2024-03-07T04:00:10;3.50;;;1.23;;
59974;SDS011;62136;-35.664;-63.766;2024-03-07T04:02:45;3.08;;;1.30;;
59974;SDS011;62136;-35.664;-63.766;2024-03-07T04:05:13;3.10;;;0.93;;
59974;SDS011;62136;-35.664;-63.766;2024-03-07T04:07:42;2.55;;;1.05;;
59974;SDS011;62136;-35.664;-63.766;2024-03-07T04:10:10;2.30;;;1.25;;
59974;SDS011;62136;-35.664;-63.766;2024-03-07T04:12:38;3.20;;;1.40;;
59974;SDS011;62136;-35.664;-63.766;2024-03-07T04:15:06;1.48;;;1.05;;
59974;SDS011;62136;-35.664;-63.766;2024-03-07T04:17:34;3.83;;;1.25;;
59974;SDS011;62136;-35.664;-63.766;2024-03-07T04:20:02;2.50;;;1.10;;
59974;SDS011;62136;-35.664;-63.766;2024-03-07T04:22:35;2.97;;;1.10;;
59974;SDS011;62136;-35.664;-63.766;2024-03-07T04:25:06;2.88;;;1.08;;
59974;SDS011;62136;-35.664;-63.766;2024-03-07T04:27:35;3.97;;;1.33;;
59974;SDS011;62136;-35.664;-63.766;2024-03-07T04:30:06;3.40;;;1.20;;
59974;SDS011;62136;-35.664;-63.766;2024-03-07T04:32:36;2.42;;;1.05;;
59974;SDS011;62136;-35.664;-63.766;2024-03-07T04:35:04;2.63;;;1.20;;
59974;SDS011;62136;-35.664;-63.766;2024-03-07T04:37:33;2.90;;;1.33;;
59974;SDS011;62136;-35.664;-63.766;2024-03-07T04:40:05;5.10;;;1.45;;
59974;SDS011;62136;-35.664;-63.766;2024-03-07T04:42:42;3.83;;;1.17;;
59974;SDS011;62136;-35.664;-63.766;2024-03-07T04:45:16;1.35;;;1.00;;
59974;SDS011;62136;-35.664;-63.766;2024-03-07T04:47:44;3.17;;;0.82;;
59974;SDS011;62136;-35.664;-63.766;2024-03-07T04:50:12;1.33;;;1.05;;
59974;SDS011;62136;-35.664;-63.766;2024-03-07T04:52:42;5.30;;;1.33;;
59974;SDS011;62136;-35.664;-63.766;2024-03-07T04:55:11;3.60;;;1.13;;
59974;SDS011;62136;-35.664;-63.766;2024-03-07T04:57:38;1.85;;;0.90;;
59974;SDS011;62136;-35.664;-63.766;2024-03-07T05:00:07;2.15;;;0.90;;
59974;SDS011;62136;-35.664;-63.766;2024-03-07T05:02:45;2.33;;;1.23;;
59974;SDS011;62136;-35.664;-63.766;2024-03-07T05:05:12;3.60;;;1.38;;
59974;SDS011;62136;-35.664;-63.766;2024-03-07T05:07:39;3.38;;;0.98;;
59974;SDS011;62136;-35.664;-63.766;2024-03-07T05:10:07;2.47;;;1.30;;
59974;SDS011;62136;-35.664;-63.766;2024-03-07T05:12:34;3.22;;;1.10;;
59974;SDS011;62136;-35.664;-63.766;2024-03-07T05:15:02;3.70;;;1.35;;
59974;SDS011;62136;-35.664;-63.766;2024-03-07T05:17:30;1.48;;;0.82;;
59974;SDS011;62136;-35.664;-63.766;2024-03-07T05:20:00;1.52;;;0.90;;
59974;SDS011;62136;-35.664;-63.766;2024-03-07T05:22:28;2.55;;;0.90;;
59974;SDS011;62136;-35.664;-63.766;2024-03-07T05:24:55;2.00;;;1.00;;
59974;SDS011;62136;-35.664;-63.766;2024-03-07T05:27:24;2.50;;;0.95;;
59974;SDS011;62136;-35.664;-63.766;2024-03-07T05:29:53;1.65;;;0.93;;
59974;SDS011;62136;-35.664;-63.766;2024-03-07T05:32:21;1.95;;;0.90;;
59974;SDS011;62136;-35.664;-63.766;2024-03-07T05:34:52;2.10;;;0.98;;
59974;SDS011;62136;-35.664;-63.766;2024-03-07T05:37:19;1.10;;;0.90;;
59974;SDS011;62136;-35.664;-63.766;2024-03-07T05:39:50;1.40;;;1.02;;
59974;SDS011;62136;-35.664;-63.766;2024-03-07T05:42:17;3.50;;;0.90;;
59974;SDS011;62136;-35.664;-63.766;2024-03-07T05:44:45;1.02;;;0.93;;
59974;SDS011;62136;-35.664;-63.766;2024-03-07T05:47:12;3.05;;;0.95;;
59974;SDS011;62136;-35.664;-63.766;2024-03-07T05:49:39;1.85;;;1.13;;
59974;SDS011;62136;-35.664;-63.766;2024-03-07T05:52:07;1.40;;;0.90;;
59974;SDS011;62136;-35.664;-63.766;2024-03-07T05:54:34;4.22;;;1.33;;
59974;SDS011;62136;-35.664;-63.766;2024-03-07T05:57:02;2.50;;;0.95;;
59974;SDS011;62136;-35.664;-63.766;2024-03-07T05:59:32;3.45;;;1.13;;
59974;SDS011;62136;-35.664;-63.766;2024-03-07T06:01:59;2.30;;;1.00;;
59974;SDS011;62136;-35.664;-63.766;2024-03-07T06:04:26;2.45;;;1.13;;
59974;SDS011;62136;-35.664;-63.766;2024-03-07T06:06:54;3.13;;;1.20;;
59974;SDS011;62136;-35.664;-63.766;2024-03-07T06:09:21;3.58;;;1.00;;
59974;SDS011;62136;-35.664;-63.766;2024-03-07T06:11:49;3.00;;;1.00;;
59974;SDS011;62136;-35.664;-63.766;2024-03-07T06:14:16;3.38;;;1.40;;
59974;SDS011;62136;-35.664;-63.766;2024-03-07T06:16:43;1.38;;;1.10;;
59974;SDS011;62136;-35.664;-63.766;2024-03-07T06:19:10;1.13;;;1.02;;
59974;SDS011;62136;-35.664;-63.766;2024-03-07T06:21:38;2.28;;;1.20;;
59974;SDS011;62136;-35.664;-63.766;2024-03-07T06:24:06;2.45;;;1.23;;
59974;SDS011;62136;-35.664;-63.766;2024-03-07T06:26:36;4.20;;;1.20;;
59974;SDS011;62136;-35.664;-63.766;2024-03-07T06:29:09;2.03;;;1.00;;
59974;SDS011;62136;-35.664;-63.766;2024-03-07T06:31:41;1.40;;;0.88;;
59974;SDS011;62136;-35.664;-63.766;2024-03-07T06:34:09;3.10;;;1.00;;
59974;SDS011;62136;-35.664;-63.766;2024-03-07T06:36:36;4.32;;;1.00;;
59974;SDS011;62136;-35.664;-63.766;2024-03-07T06:39:03;1.70;;;0.90;;
59974;SDS011;62136;-35.664;-63.766;2024-03-07T06:41:32;1.95;;;0.98;;
59974;SDS011;62136;-35.664;-63.766;2024-03-07T06:43:59;2.03;;;0.90;;
59974;SDS011;62136;-35.664;-63.766;2024-03-07T06:46:27;2.88;;;1.38;;
59974;SDS011;62136;-35.664;-63.766;2024-03-07T06:48:54;2.45;;;1.00;;
59974;SDS011;62136;-35.664;-63.766;2024-03-07T06:51:21;0.95;;;0.70;;
59974;SDS011;62136;-35.664;-63.766;2024-03-07T06:53:50;3.00;;;1.30;;
59974;SDS011;62136;-35.664;-63.766;2024-03-07T06:56:17;2.60;;;1.30;;
59974;SDS011;62136;-35.664;-63.766;2024-03-07T06:58:44;2.70;;;1.25;;
59974;SDS011;62136;-35.664;-63.766;2024-03-07T07:01:11;2.75;;;1.13;;
59974;SDS011;62136;-35.664;-63.766;2024-03-07T07:03:40;2.55;;;0.88;;
59974;SDS011;62136;-35.664;-63.766;2024-03-07T07:06:11;2.67;;;1.10;;
59974;SDS011;62136;-35.664;-63.766;2024-03-07T07:08:38;2.75;;;1.00;;
59974;SDS011;62136;-35.664;-63.766;2024-03-07T07:11:05;2.53;;;1.20;;
59974;SDS011;62136;-35.664;-63.766;2024-03-07T07:13:32;2.30;;;0.98;;
59974;SDS011;62136;-35.664;-63.766;2024-03-07T07:15:59;3.28;;;1.15;;
59974;SDS011;62136;-35.664;-63.766;2024-03-07T07:18:26;2.53;;;1.25;;
59974;SDS011;62136;-35.664;-63.766;2024-03-07T07:20:53;4.00;;;1.10;;
59974;SDS011;62136;-35.664;-63.766;2024-03-07T07:23:21;2.03;;;1.13;;
59974;SDS011;62136;-35.664;-63.766;2024-03-07T07:25:48;1.75;;;1.02;;
59974;SDS011;62136;-35.664;-63.766;2024-03-07T07:28:15;1.75;;;0.93;;
59974;SDS011;62136;-35.664;-63.766;2024-03-07T07:30:42;2.40;;;1.10;;
59974;SDS011;62136;-35.664;-63.766;2024-03-07T07:33:09;4.60;;;1.23;;
59974;SDS011;62136;-35.664;-63.766;2024-03-07T07:35:37;3.15;;;1.15;;
59974;SDS011;62136;-35.664;-63.766;2024-03-07T07:38:04;1.90;;;1.05;;
59974;SDS011;62136;-35.664;-63.766;2024-03-07T07:40:32;2.42;;;0.98;;
59974;SDS011;62136;-35.664;-63.766;2024-03-07T07:43:01;3.00;;;1.20;;
59974;SDS011;62136;-35.664;-63.766;2024-03-07T07:45:29;4.53;;;1.10;;
59974;SDS011;62136;-35.664;-63.766;2024-03-07T07:47:57;2.17;;;1.02;;
59974;SDS011;62136;-35.664;-63.766;2024-03-07T07:50:25;2.33;;;0.90;;
59974;SDS011;62136;-35.664;-63.766;2024-03-07T07:52:53;2.00;;;1.10;;
59974;SDS011;62136;-35.664;-63.766;2024-03-07T07:55:22;1.90;;;1.05;;
59974;SDS011;62136;-35.664;-63.766;2024-03-07T07:57:57;1.90;;;0.95;;
59974;SDS011;62136;-35.664;-63.766;2024-03-07T08:00:26;1.15;;;1.02;;
59974;SDS011;62136;-35.664;-63.766;2024-03-07T08:02:55;2.47;;;1.10;;
59974;SDS011;62136;-35.664;-63.766;2024-03-07T08:05:23;1.80;;;1.10;;
59974;SDS011;62136;-35.664;-63.766;2024-03-07T08:07:53;2.42;;;0.98;;
59974;SDS011;62136;-35.664;-63.766;2024-03-07T08:10:25;3.22;;;1.02;;
59974;SDS011;62136;-35.664;-63.766;2024-03-07T08:12:56;3.28;;;1.33;;
59974;SDS011;62136;-35.664;-63.766;2024-03-07T08:15:24;2.75;;;1.17;;
59974;SDS011;62136;-35.664;-63.766;2024-03-07T08:17:53;1.95;;;0.95;;
59974;SDS011;62136;-35.664;-63.766;2024-03-07T08:20:21;1.73;;;1.10;;
59974;SDS011;62136;-35.664;-63.766;2024-03-07T08:22:49;2.20;;;1.50;;
59974;SDS011;62136;-35.664;-63.766;2024-03-07T08:25:18;3.47;;;1.30;;
59974;SDS011;62136;-35.664;-63.766;2024-03-07T08:27:49;2.78;;;1.27;;
59974;SDS011;62136;-35.664;-63.766;2024-03-07T08:30:17;1.55;;;1.20;;
59974;SDS011;62136;-35.664;-63.766;2024-03-07T08:35:12;2.17;;;1.05;;
59974;SDS011;62136;-35.664;-63.766;2024-03-07T08:37:41;2.47;;;1.33;;
59974;SDS011;62136;-35.664;-63.766;2024-03-07T08:40:10;3.65;;;1.40;;
59974;SDS011;62136;-35.664;-63.766;2024-03-07T08:42:45;2.80;;;1.17;;
59974;SDS011;62136;-35.664;-63.766;2024-03-07T08:45:13;1.20;;;0.90;;
59974;SDS011;62136;-35.664;-63.766;2024-03-07T08:47:47;2.90;;;1.10;;
59974;SDS011;62136;-35.664;-63.766;2024-03-07T08:50:16;2.38;;;1.10;;
59974;SDS011;62136;-35.664;-63.766;2024-03-07T08:52:47;2.60;;;0.95;;
59974;SDS011;62136;-35.664;-63.766;2024-03-07T08:55:15;2.13;;;1.30;;
59974;SDS011;62136;-35.664;-63.766;2024-03-07T08:57:46;3.88;;;1.17;;
59974;SDS011;62136;-35.664;-63.766;2024-03-07T09:00:14;2.83;;;1.17;;
59974;SDS011;62136;-35.664;-63.766;2024-03-07T09:02:55;2.30;;;1.40;;
59974;SDS011;62136;-35.664;-63.766;2024-03-07T09:05:23;2.08;;;1.20;;
59974;SDS011;62136;-35.664;-63.766;2024-03-07T09:07:52;1.75;;;1.30;;
59974;SDS011;62136;-35.664;-63.766;2024-03-07T09:10:20;2.03;;;1.23;;
59974;SDS011;62136;-35.664;-63.766;2024-03-07T09:12:49;2.95;;;1.30;;
59974;SDS011;62136;-35.664;-63.766;2024-03-07T09:15:17;2.17;;;1.40;;
59974;SDS011;62136;-35.664;-63.766;2024-03-07T09:17:46;2.72;;;1.25;;
59974;SDS011;62136;-35.664;-63.766;2024-03-07T09:20:13;2.35;;;1.20;;
59974;SDS011;62136;-35.664;-63.766;2024-03-07T09:22:41;2.25;;;1.40;;
59974;SDS011;62136;-35.664;-63.766;2024-03-07T09:25:10;2.25;;;1.00;;
59974;SDS011;62136;-35.664;-63.766;2024-03-07T09:27:42;3.28;;;1.35;;
59974;SDS011;62136;-35.664;-63.766;2024-03-07T09:30:09;3.58;;;1.50;;
59974;SDS011;62136;-35.664;-63.766;2024-03-07T09:32:42;1.90;;;1.25;;
59974;SDS011;62136;-35.664;-63.766;2024-03-07T09:35:09;1.70;;;1.05;;
59974;SDS011;62136;-35.664;-63.766;2024-03-07T09:37:40;1.77;;;1.10;;
59974;SDS011;62136;-35.664;-63.766;2024-03-07T09:40:08;1.90;;;1.50;;
59974;SDS011;62136;-35.664;-63.766;2024-03-07T09:42:49;3.10;;;1.10;;
59974;SDS011;62136;-35.664;-63.766;2024-03-07T09:45:20;5.70;;;1.30;;
59974;SDS011;62136;-35.664;-63.766;2024-03-07T09:47:49;2.22;;;1.10;;
59974;SDS011;62136;-35.664;-63.766;2024-03-07T09:50:17;2.40;;;1.10;;
59974;SDS011;62136;-35.664;-63.766;2024-03-07T09:52:47;1.75;;;1.35;;
59974;SDS011;62136;-35.664;-63.766;2024-03-07T09:55:16;2.33;;;1.20;;
59974;SDS011;62136;-35.664;-63.766;2024-03-07T09:57:46;2.83;;;1.40;;
59974;SDS011;62136;-35.664;-63.766;2024-03-07T10:00:16;2.70;;;1.25;;
59974;SDS011;62136;-35.664;-63.766;2024-03-07T10:03:02;4.18;;;1.40;;
59974;SDS011;62136;-35.664;-63.766;2024-03-07T10:05:34;3.13;;;1.42;;
59974;SDS011;62136;-35.664;-63.766;2024-03-07T10:08:03;1.65;;;1.10;;
59974;SDS011;62136;-35.664;-63.766;2024-03-07T10:10:30;4.25;;;1.63;;
59974;SDS011;62136;-35.664;-63.766;2024-03-07T10:12:57;2.08;;;1.30;;
59974;SDS011;62136;-35.664;-63.766;2024-03-07T10:15:28;3.47;;;1.65;;
59974;SDS011;62136;-35.664;-63.766;2024-03-07T10:17:55;4.78;;;1.80;;
59974;SDS011;62136;-35.664;-63.766;2024-03-07T10:20:22;2.53;;;1.80;;
59974;SDS011;62136;-35.664;-63.766;2024-03-07T10:22:50;3.50;;;2.00;;
59974;SDS011;62136;-35.664;-63.766;2024-03-07T10:25:18;3.85;;;2.10;;
59974;SDS011;62136;-35.664;-63.766;2024-03-07T10:27:53;3.45;;;1.60;;
59974;SDS011;62136;-35.664;-63.766;2024-03-07T10:30:20;4.30;;;2.00;;
59974;SDS011;62136;-35.664;-63.766;2024-03-07T10:32:47;3.33;;;1.70;;
59974;SDS011;62136;-35.664;-63.766;2024-03-07T10:35:23;4.68;;;2.30;;
59974;SDS011;62136;-35.664;-63.766;2024-03-07T10:37:54;5.47;;;1.80;;
59974;SDS011;62136;-35.664;-63.766;2024-03-07T10:40:25;3.63;;;1.90;;
59974;SDS011;62136;-35.664;-63.766;2024-03-07T10:42:55;4.57;;;2.25;;
59974;SDS011;62136;-35.664;-63.766;2024-03-07T10:45:23;4.38;;;1.98;;
59974;SDS011;62136;-35.664;-63.766;2024-03-07T10:47:55;7.40;;;2.22;;
59974;SDS011;62136;-35.664;-63.766;2024-03-07T10:54:05;5.53;;;2.10;;
59974;SDS011;62136;-35.664;-63.766;2024-03-07T11:03:48;7.88;;;2.30;;
59974;SDS011;62136;-35.664;-63.766;2024-03-07T11:06:18;4.28;;;2.13;;
59974;SDS011;62136;-35.664;-63.766;2024-03-07T11:08:46;5.25;;;2.47;;
59974;SDS011;62136;-35.664;-63.766;2024-03-07T11:11:14;8.00;;;2.40;;
59974;SDS011;62136;-35.664;-63.766;2024-03-07T11:13:41;7.97;;;2.40;;
59974;SDS011;62136;-35.664;-63.766;2024-03-07T11:16:10;9.32;;;2.20;;
59974;SDS011;62136;-35.664;-63.766;2024-03-07T11:18:40;4.00;;;1.75;;
59974;SDS011;62136;-35.664;-63.766;2024-03-07T11:21:07;5.10;;;2.17;;
59974;SDS011;62136;-35.664;-63.766;2024-03-07T11:24:07;10.75;;;3.13;;
59974;SDS011;62136;-35.664;-63.766;2024-03-07T11:26:34;6.40;;;2.35;;
59974;SDS011;62136;-35.664;-63.766;2024-03-07T11:29:01;6.88;;;2.10;;
59974;SDS011;62136;-35.664;-63.766;2024-03-07T11:31:48;9.18;;;2.20;;
59974;SDS011;62136;-35.664;-63.766;2024-03-07T11:34:19;7.18;;;2.38;;
59974;SDS011;62136;-35.664;-63.766;2024-03-07T11:36:48;4.60;;;1.95;;
59974;SDS011;62136;-35.664;-63.766;2024-03-07T11:42:08;4.82;;;2.20;;
59974;SDS011;62136;-35.664;-63.766;2024-03-07T11:44:48;3.85;;;1.70;;
59974;SDS011;62136;-35.664;-63.766;2024-03-07T11:47:17;5.80;;;1.90;;
59974;SDS011;62136;-35.664;-63.766;2024-03-07T11:49:44;5.90;;;2.00;;
59974;SDS011;62136;-35.664;-63.766;2024-03-07T11:52:20;3.15;;;1.75;;
59974;SDS011;62136;-35.664;-63.766;2024-03-07T11:54:47;6.68;;;1.92;;
59974;SDS011;62136;-35.664;-63.766;2024-03-07T11:57:15;7.32;;;2.13;;
59974;SDS011;62136;-35.664;-63.766;2024-03-07T11:59:45;4.15;;;2.22;;
59974;SDS011;62136;-35.664;-63.766;2024-03-07T12:02:17;4.45;;;2.10;;
59974;SDS011;62136;-35.664;-63.766;2024-03-07T12:04:48;7.88;;;2.05;;
59974;SDS011;62136;-35.664;-63.766;2024-03-07T12:07:15;5.32;;;2.33;;
59974;SDS011;62136;-35.664;-63.766;2024-03-07T12:09:43;9.70;;;2.25;;
59974;SDS011;62136;-35.664;-63.766;2024-03-07T12:12:16;6.80;;;2.15;;
59974;SDS011;62136;-35.664;-63.766;2024-03-07T12:14:43;5.03;;;2.00;;
59974;SDS011;62136;-35.664;-63.766;2024-03-07T12:17:11;6.38;;;1.75;;
59974;SDS011;62136;-35.664;-63.766;2024-03-07T12:19:38;4.53;;;1.92;;
59974;SDS011;62136;-35.664;-63.766;2024-03-07T12:22:08;4.85;;;1.70;;
59974;SDS011;62136;-35.664;-63.766;2024-03-07T12:24:41;5.43;;;1.70;;
59974;SDS011;62136;-35.664;-63.766;2024-03-07T12:27:12;3.95;;;1.63;;
59974;SDS011;62136;-35.664;-63.766;2024-03-07T12:29:42;4.32;;;1.95;;
59974;SDS011;62136;-35.664;-63.766;2024-03-07T12:32:17;5.60;;;1.42;;
59974;SDS011;62136;-35.664;-63.766;2024-03-07T12:34:45;5.57;;;1.60;;
59974;SDS011;62136;-35.664;-63.766;2024-03-07T12:37:12;4.15;;;1.50;;
59974;SDS011;62136;-35.664;-63.766;2024-03-07T12:39:43;3.75;;;1.70;;
59974;SDS011;62136;-35.664;-63.766;2024-03-07T12:42:24;5.15;;;1.48;;
59974;SDS011;62136;-35.664;-63.766;2024-03-07T12:44:54;5.32;;;1.70;;
59974;SDS011;62136;-35.664;-63.766;2024-03-07T12:47:22;8.55;;;1.77;;
59974;SDS011;62136;-35.664;-63.766;2024-03-07T12:49:51;4.22;;;1.98;;
59974;SDS011;62136;-35.664;-63.766;2024-03-07T12:52:18;5.35;;;1.80;;
59974;SDS011;62136;-35.664;-63.766;2024-03-07T12:54:45;4.57;;;1.65;;
59974;SDS011;62136;-35.664;-63.766;2024-03-07T12:57:13;6.32;;;1.80;;
59974;SDS011;62136;-35.664;-63.766;2024-03-07T12:59:46;7.28;;;2.03;;
59974;SDS011;62136;-35.664;-63.766;2024-03-07T13:02:13;5.30;;;1.73;;
59974;SDS011;62136;-35.664;-63.766;2024-03-07T13:04:41;6.93;;;1.55;;
59974;SDS011;62136;-35.664;-63.766;2024-03-07T13:07:09;5.55;;;1.75;;
59974;SDS011;62136;-35.664;-63.766;2024-03-07T13:09:36;6.30;;;1.70;;
59974;SDS011;62136;-35.664;-63.766;2024-03-07T13:12:06;8.70;;;1.95;;
59974;SDS011;62136;-35.664;-63.766;2024-03-07T13:14:35;3.92;;;1.55;;
59974;SDS011;62136;-35.664;-63.766;2024-03-07T13:17:02;8.00;;;2.20;;
59974;SDS011;62136;-35.664;-63.766;2024-03-07T13:19:34;5.90;;;1.45;;
59974;SDS011;62136;-35.664;-63.766;2024-03-07T13:22:04;6.30;;;2.10;;
59974;SDS011;62136;-35.664;-63.766;2024-03-07T13:24:32;6.53;;;1.90;;
59974;SDS011;62136;-35.664;-63.766;2024-03-07T13:27:00;5.13;;;1.85;;
59974;SDS011;62136;-35.664;-63.766;2024-03-07T13:29:30;5.68;;;2.13;;
59974;SDS011;62136;-35.664;-63.766;2024-03-07T13:31:58;10.38;;;2.00;;
59974;SDS011;62136;-35.664;-63.766;2024-03-07T13:34:25;6.95;;;2.67;;
59974;SDS011;62136;-35.664;-63.766;2024-03-07T13:36:54;5.70;;;1.70;;
59974;SDS011;62136;-35.664;-63.766;2024-03-07T13:39:23;7.72;;;1.85;;
59974;SDS011;62136;-35.664;-63.766;2024-03-07T13:41:50;7.20;;;1.77;;
59974;SDS011;62136;-35.664;-63.766;2024-03-07T13:44:18;4.72;;;1.55;;
59974;SDS011;62136;-35.664;-63.766;2024-03-07T13:46:47;4.22;;;1.90;;
59974;SDS011;62136;-35.664;-63.766;2024-03-07T13:49:15;4.22;;;1.85;;
59974;SDS011;62136;-35.664;-63.766;2024-03-07T13:51:43;4.32;;;1.92;;
59974;SDS011;62136;-35.664;-63.766;2024-03-07T13:54:16;5.88;;;2.00;;
59974;SDS011;62136;-35.664;-63.766;2024-03-07T14:14:26;8.52;;;3.60;;
59974;SDS011;62136;-35.664;-63.766;2024-03-07T14:31:37;6.70;;;2.60;;
59974;SDS011;62136;-35.664;-63.766;2024-03-07T14:36:56;8.82;;;2.78;;
59974;SDS011;62136;-35.664;-63.766;2024-03-07T14:39:30;7.25;;;2.40;;
59974;SDS011;62136;-35.664;-63.766;2024-03-07T14:42:07;9.48;;;3.35;;
59974;SDS011;62136;-35.664;-63.766;2024-03-07T14:44:40;6.82;;;2.67;;
59974;SDS011;62136;-35.664;-63.766;2024-03-07T14:47:14;8.82;;;2.88;;
59974;SDS011;62136;-35.664;-63.766;2024-03-07T14:49:45;7.25;;;2.83;;
59974;SDS011;62136;-35.664;-63.766;2024-03-07T14:52:12;5.10;;;2.03;;
59974;SDS011;62136;-35.664;-63.766;2024-03-07T14:54:40;10.15;;;2.80;;
59974;SDS011;62136;-35.664;-63.766;2024-03-07T14:57:09;8.65;;;3.05;;
59974;SDS011;62136;-35.664;-63.766;2024-03-07T14:59:37;7.15;;;2.72;;
59974;SDS011;62136;-35.664;-63.766;2024-03-07T15:02:06;5.57;;;2.55;;
59974;SDS011;62136;-35.664;-63.766;2024-03-07T15:04:36;5.63;;;2.47;;
59974;SDS011;62136;-35.664;-63.766;2024-03-07T15:07:05;6.55;;;2.67;;
59974;SDS011;62136;-35.664;-63.766;2024-03-07T15:09:37;5.15;;;2.30;;